Time;durP1;ratioP1;P1;durP2;ratioP2;P2;SDS_P1;SDS_P2;PMS_P1;PMS_P2;Temp;Humidity;BMP_temperature;BMP_pressure;BME280_temperature;BME280_humidity;BME280_pressure;Samples;Min_cycle;Max_cycle;Signal;HPM_P1;HPM_P2
2023/12/29 00:01:23;;;;;;;0.75;0.75;;;-1.20;99.90;;;;;;5111074;28;20187;-71
2023/12/29 00:03:49;;;;;;;0.77;0.77;;;-1.10;99.90;;;;;;5111266;28;20191;-72
2023/12/29 00:06:15;;;;;;;0.75;0.75;;;-1.10;99.90;;;;;;5126921;27;20222;-71
2023/12/29 00:08:41;;;;;;;0.60;0.60;;;-1.00;99.90;;;;;;5110519;28;20191;-71
2023/12/29 00:11:06;;;;;;;0.80;0.80;;;-0.90;99.90;;;;;;5083614;28;20192;-71
2023/12/29 00:13:32;;;;;;;0.70;0.70;;;-0.80;99.90;;;;;;5090469;28;20535;-71
2023/12/29 00:15:58;;;;;;;0.50;0.50;;;-0.80;99.90;;;;;;5090761;28;20204;-71
2023/12/29 00:18:24;;;;;;;0.68;0.68;;;-0.80;99.90;;;;;;5090718;28;20289;-70
2023/12/29 00:20:50;;;;;;;0.80;0.80;;;-0.80;99.90;;;;;;5090706;28;20309;-71
2023/12/29 00:23:15;;;;;;;0.73;0.73;;;-0.80;99.90;;;;;;5082601;28;20203;-71
2023/12/29 00:25:41;;;;;;;0.70;0.70;;;-0.80;99.90;;;;;;5090561;28;20668;-71
2023/12/29 00:28:07;;;;;;;0.65;0.65;;;-0.80;99.90;;;;;;5090904;28;20199;-71
2023/12/29 00:30:32;;;;;;;0.70;0.70;;;-0.80;99.90;;;;;;5090334;28;20208;-71
2023/12/29 00:32:58;;;;;;;0.65;0.65;;;-0.80;99.90;;;;;;5090528;28;20220;-71
2023/12/29 00:35:23;;;;;;;0.70;0.70;;;-0.80;99.90;;;;;;5090748;28;20221;-72
2023/12/29 00:37:52;;;;;;;0.70;0.70;;;-0.80;99.90;;;;;;5090392;28;20208;-71
2023/12/29 00:40:18;;;;;;;0.80;0.80;;;-0.80;99.90;;;;;;5090478;28;20191;-71
2023/12/29 00:42:43;;;;;;;2.70;2.03;;;-0.80;99.90;;;;;;5090738;28;20192;-70
2023/12/29 00:45:09;;;;;;;0.80;0.80;;;-0.80;99.90;;;;;;5090547;28;20196;-71
2023/12/29 00:47:35;;;;;;;0.70;0.70;;;-0.80;99.90;;;;;;5090130;28;20283;-71
2023/12/29 00:50:01;;;;;;;0.70;0.70;;;-0.80;99.90;;;;;;5090541;28;20275;-71
2023/12/29 00:52:27;;;;;;;0.70;0.70;;;-0.80;99.90;;;;;;5090083;28;20192;-71
2023/12/29 00:54:53;;;;;;;0.70;0.70;;;-0.80;99.90;;;;;;5097750;28;20196;-70
2023/12/29 00:57:19;;;;;;;0.75;0.75;;;-0.70;99.90;;;;;;5110874;28;20290;-71
2023/12/29 00:59:47;;;;;;;0.70;0.70;;;-0.70;99.90;;;;;;5111061;28;20195;-71
2023/12/29 01:02:12;;;;;;;0.70;0.70;;;-0.70;99.90;;;;;;5111231;28;20210;-70
2023/12/29 01:04:41;;;;;;;1.15;1.13;;;-0.60;99.90;;;;;;5110508;28;20278;-70
2023/12/29 01:07:06;;;;;;;0.70;0.70;;;-0.60;99.90;;;;;;5103046;28;20230;-71
2023/12/29 01:09:38;;;;;;;0.70;0.70;;;-0.50;99.90;;;;;;5089779;28;20652;-71
2023/12/29 01:12:04;;;;;;;0.70;0.70;;;-0.40;99.90;;;;;;5090241;28;20682;-71
2023/12/29 01:14:29;;;;;;;0.63;0.63;;;-0.40;99.90;;;;;;5071984;28;20287;-71
2023/12/29 01:16:55;;;;;;;0.65;0.65;;;-0.30;99.90;;;;;;5071992;28;20308;-70
2023/12/29 01:19:20;;;;;;;0.77;0.77;;;-0.30;99.90;;;;;;5090692;28;20200;-71
2023/12/29 01:21:46;;;;;;;0.70;0.70;;;-0.20;99.90;;;;;;5093540;28;20321;-70
2023/12/29 01:24:12;;;;;;;0.77;0.77;;;-0.20;99.90;;;;;;5075512;28;20204;-70
2023/12/29 01:26:38;;;;;;;0.60;0.60;;;-0.20;99.90;;;;;;5075458;28;20196;-71
2023/12/29 01:29:05;;;;;;;0.70;0.70;;;-0.10;99.90;;;;;;5093710;28;20651;-70
2023/12/29 01:31:31;;;;;;;0.70;0.70;;;-0.10;99.90;;;;;;5093482;28;20563;-71
2023/12/29 01:33:57;;;;;;;0.60;0.60;;;-0.10;99.90;;;;;;5093474;28;20279;-70
2023/12/29 01:36:22;;;;;;;0.70;0.70;;;0.00;99.90;;;;;;5093327;28;20710;-69
2023/12/29 01:38:48;;;;;;;0.68;0.68;;;0.00;99.90;;;;;;5088523;28;20667;-70
2023/12/29 01:41:14;;;;;;;0.70;0.70;;;0.00;99.90;;;;;;5093540;28;20195;-71
2023/12/29 01:44:01;;;;;;;0.80;0.80;;;0.00;99.90;;;;;;5091723;28;20776;-71
2023/12/29 01:46:29;;;;;;;0.77;0.77;;;0.10;99.90;;;;;;5093184;28;20196;-69
2023/12/29 01:48:55;;;;;;;0.70;0.70;;;0.10;99.90;;;;;;5093341;28;20192;-70
2023/12/29 01:51:24;;;;;;;0.70;0.70;;;0.10;99.90;;;;;;5092983;28;20239;-68
2023/12/29 01:53:51;;;;;;;0.70;0.70;;;0.20;99.90;;;;;;5091944;28;20261;-68
2023/12/29 01:56:17;;;;;;;0.70;0.70;;;0.20;99.90;;;;;;5093652;28;20699;-70
2023/12/29 01:58:48;;;;;;;0.70;0.70;;;0.20;99.90;;;;;;5093381;28;20189;-69
2023/12/29 02:01:14;;;;;;;0.70;0.70;;;0.20;99.90;;;;;;5093234;28;20207;-68
2023/12/29 02:07:02;;;;;;;0.63;0.63;;;0.30;99.90;;;;;;5091911;28;20575;-75
2023/12/29 02:09:28;;;;;;;0.77;0.77;;;0.30;99.90;;;;;;5091910;28;20192;-75
2023/12/29 02:11:54;;;;;;;0.80;0.80;;;0.30;99.90;;;;;;5089993;28;20283;-75
2023/12/29 02:14:21;;;;;;;0.70;0.70;;;0.40;99.90;;;;;;5092185;28;20245;-68
2023/12/29 02:16:50;;;;;;;0.70;0.70;;;0.30;99.90;;;;;;5092661;28;20220;-69
2023/12/29 02:22:38;;;;;;;0.70;0.70;;;0.40;99.90;;;;;;5144167;22;20243;-83
2023/12/29 02:25:06;;;;;;;0.60;0.60;;;0.40;99.90;;;;;;5071833;28;20212;-83
2023/12/29 02:28:04;;;;;;;0.60;0.60;;;0.50;99.90;;;;;;5077591;28;20678;-90
2023/12/29 02:30:42;;;;;;;0.80;0.80;;;0.50;99.90;;;;;;5083840;28;20214;-83
2023/12/29 02:33:13;;;;;;;0.60;0.60;;;0.50;99.90;;;;;;5074021;28;20192;-83
2023/12/29 02:35:45;;;;;;;0.70;0.70;;;0.50;99.90;;;;;;5083208;28;20192;-83
2023/12/29 02:38:48;;;;;;;0.70;0.70;;;0.60;99.90;;;;;;5080560;28;20199;-83
2023/12/29 02:41:14;;;;;;;0.70;0.70;;;0.60;99.90;;;;;;5100664;28;20207;-83
2023/12/29 02:43:40;;;;;;;0.60;0.60;;;0.60;99.90;;;;;;5100190;28;20211;-84
2023/12/29 02:46:06;;;;;;;0.70;0.70;;;0.50;99.90;;;;;;5100818;28;20188;-83
2023/12/29 02:48:32;;;;;;;0.60;0.60;;;0.60;99.90;;;;;;5099465;28;20227;-84
2023/12/29 02:51:07;;;;;;;0.70;0.70;;;0.60;99.90;;;;;;5081785;28;20207;-83
2023/12/29 02:53:59;;;;;;;0.70;0.70;;;0.60;99.90;;;;;;5100194;28;20191;-83
2023/12/29 02:56:25;;;;;;;0.50;0.50;;;0.60;99.90;;;;;;5081255;28;20220;-83
2023/12/29 02:58:51;;;;;;;0.65;0.65;;;0.60;99.90;;;;;;5099243;28;20215;-83
2023/12/29 03:01:18;;;;;;;0.73;0.73;;;0.60;99.90;;;;;;5080774;28;20672;-83
2023/12/29 03:03:44;;;;;;;0.65;0.65;;;0.70;99.90;;;;;;5080778;28;20199;-83
2023/12/29 03:06:09;;;;;;;2.67;2.45;;;0.70;99.90;;;;;;5081393;28;20279;-84
2023/12/29 03:08:35;;;;;;;0.70;0.70;;;0.70;99.90;;;;;;5081743;28;20199;-83
2023/12/29 03:11:01;;;;;;;0.60;0.60;;;0.70;99.90;;;;;;5078860;28;20192;-84
2023/12/29 03:13:26;;;;;;;0.63;0.63;;;0.80;99.90;;;;;;5080707;28;20254;-83
2023/12/29 03:15:52;;;;;;;0.70;0.70;;;0.80;99.90;;;;;;5081559;28;20248;-84
2023/12/29 03:18:18;;;;;;;0.70;0.70;;;0.80;99.90;;;;;;5080599;28;20222;-84
2023/12/29 03:20:43;;;;;;;0.50;0.50;;;0.90;99.90;;;;;;5077891;28;20200;-84
2023/12/29 03:23:09;;;;;;;0.60;0.60;;;0.80;99.90;;;;;;5080624;28;20196;-84
2023/12/29 03:25:35;;;;;;;0.70;0.70;;;0.90;99.90;;;;;;5100224;28;20202;-83
2023/12/29 03:28:00;;;;;;;0.60;0.60;;;1.00;99.90;;;;;;5100239;28;20288;-82
2023/12/29 03:30:26;;;;;;;0.68;0.68;;;1.00;99.90;;;;;;5099724;28;20191;-84
2023/12/29 03:32:52;;;;;;;0.68;0.68;;;1.00;99.90;;;;;;5099419;28;20196;-83
2023/12/29 03:35:20;;;;;;;0.60;0.60;;;1.10;99.90;;;;;;5081825;28;20251;-84
2023/12/29 03:37:46;;;;;;;0.70;0.70;;;1.20;99.90;;;;;;5081879;28;20202;-84
2023/12/29 03:40:12;;;;;;;0.70;0.70;;;1.10;99.90;;;;;;5099473;28;20224;-85
2023/12/29 03:42:39;;;;;;;0.60;0.60;;;1.20;99.90;;;;;;5077323;28;20196;-86
2023/12/29 03:45:05;;;;;;;0.60;0.60;;;1.10;99.90;;;;;;5095627;28;20278;-85
2023/12/29 03:47:31;;;;;;;0.70;0.70;;;1.20;99.90;;;;;;5077552;28;20705;-85
2023/12/29 03:50:00;;;;;;;0.80;0.80;;;1.20;99.90;;;;;;5077856;28;20673;-85
2023/12/29 03:52:26;;;;;;;0.70;0.70;;;1.20;99.90;;;;;;5061415;28;20220;-85
2023/12/29 03:54:52;;;;;;;0.73;0.73;;;1.20;99.90;;;;;;5095194;28;20188;-86
2023/12/29 03:57:17;;;;;;;0.70;0.70;;;1.20;99.90;;;;;;5096431;28;20203;-85
2023/12/29 03:59:43;;;;;;;0.75;0.75;;;1.20;99.90;;;;;;5079000;28;20247;-85
2023/12/29 04:02:09;;;;;;;0.70;0.70;;;1.30;99.90;;;;;;5069327;28;20783;-85
2023/12/29 04:04:38;;;;;;;0.70;0.70;;;1.30;99.90;;;;;;5076040;28;20196;-85
2023/12/29 04:07:04;;;;;;;0.70;0.70;;;1.30;99.90;;;;;;5096004;28;20211;-86
2023/12/29 04:09:30;;;;;;;0.63;0.63;;;1.30;99.90;;;;;;5077171;28;20238;-85
2023/12/29 04:11:57;;;;;;;0.70;0.70;;;1.40;99.90;;;;;;5077598;28;20220;-86
2023/12/29 04:14:23;;;;;;;0.70;0.70;;;1.40;99.90;;;;;;5076909;28;20666;-85
2023/12/29 04:16:51;;;;;;;0.70;0.70;;;1.40;99.90;;;;;;5077199;28;20204;-85
2023/12/29 04:19:20;;;;;;;0.70;0.70;;;1.40;99.90;;;;;;5077064;28;20685;-86
2023/12/29 04:21:49;;;;;;;0.70;0.70;;;1.50;99.90;;;;;;5077307;28;20259;-85
2023/12/29 04:24:17;;;;;;;0.60;0.60;;;1.40;99.90;;;;;;5076828;28;20196;-85
2023/12/29 04:26:42;;;;;;;0.60;0.60;;;1.40;99.90;;;;;;5077488;28;20574;-85
2023/12/29 04:29:08;;;;;;;0.70;0.70;;;1.40;99.90;;;;;;5077008;28;20196;-85
2023/12/29 04:31:34;;;;;;;0.60;0.60;;;1.40;99.90;;;;;;5096257;28;20192;-88
2023/12/29 04:34:00;;;;;;;0.60;0.60;;;1.50;99.90;;;;;;5078646;28;20875;-89
2023/12/29 04:36:26;;;;;;;0.60;0.60;;;1.50;99.90;;;;;;5080120;28;20199;-89
2023/12/29 04:38:54;;;;;;;0.65;0.65;;;1.40;99.90;;;;;;5080703;28;20200;-89
2023/12/29 04:41:23;;;;;;;0.60;0.60;;;1.50;99.90;;;;;;5080249;28;20210;-90
2023/12/29 04:43:49;;;;;;;0.70;0.70;;;1.50;99.90;;;;;;5082180;28;20200;-89
2023/12/29 04:46:17;;;;;;;0.70;0.70;;;1.50;99.90;;;;;;5082613;28;20203;-89
2023/12/29 04:48:48;;;;;;;0.70;0.70;;;1.40;99.90;;;;;;5080397;28;20203;-89
2023/12/29 04:51:26;;;;;;;0.65;0.65;;;1.40;99.90;;;;;;5084964;28;20219;-86
2023/12/29 04:53:52;;;;;;;0.60;0.60;;;1.40;99.90;;;;;;5084482;28;20203;-87
2023/12/29 04:56:20;;;;;;;0.70;0.70;;;1.50;99.90;;;;;;5105112;28;20241;-87
2023/12/29 04:58:51;;;;;;;0.60;0.60;;;1.40;99.90;;;;;;5085882;28;20287;-87
2023/12/29 05:01:31;;;;;;;0.60;0.60;;;1.40;99.90;;;;;;5103965;28;20228;-87
2023/12/29 05:03:56;;;;;;;0.70;0.70;;;1.40;99.90;;;;;;5085419;28;20221;-86
2023/12/29 05:06:25;;;;;;;0.60;0.60;;;1.50;99.90;;;;;;5085803;28;20286;-86
2023/12/29 05:08:50;;;;;;;0.50;0.50;;;1.50;99.90;;;;;;5104640;28;20184;-87
2023/12/29 05:11:17;;;;;;;0.80;0.80;;;1.50;99.90;;;;;;5083709;28;20279;-87
2023/12/29 05:13:44;;;;;;;0.68;0.68;;;1.50;99.90;;;;;;5083602;28;20252;-87
2023/12/29 05:16:28;;;;;;;0.70;0.70;;;1.50;99.90;;;;;;5085906;28;20204;-87
2023/12/29 05:18:54;;;;;;;0.60;0.60;;;1.50;99.90;;;;;;5084327;28;20204;-86
2023/12/29 05:21:23;;;;;;;0.73;0.73;;;1.50;99.90;;;;;;5086194;28;20875;-86
2023/12/29 05:23:55;;;;;;;0.70;0.70;;;1.50;99.90;;;;;;5102656;28;20279;-87
2023/12/29 05:26:21;;;;;;;0.70;0.70;;;1.50;99.90;;;;;;5102415;28;20208;-87
2023/12/29 05:28:46;;;;;;;0.50;0.50;;;1.50;99.90;;;;;;5086193;28;20295;-87
2023/12/29 05:31:12;;;;;;;0.60;0.60;;;1.50;99.90;;;;;;5085909;28;20260;-86
2023/12/29 05:34:07;;;;;;;0.60;0.60;;;1.50;99.90;;;;;;5086728;28;20207;-87
2023/12/29 05:36:45;;;;;;;0.60;0.60;;;1.50;99.90;;;;;;5084233;28;20541;-88
2023/12/29 05:39:11;;;;;;;1.77;1.60;;;1.50;99.90;;;;;;5086028;28;20199;-88
2023/12/29 05:41:37;;;;;;;0.70;0.70;;;1.50;99.90;;;;;;5086094;28;20286;-87
2023/12/29 05:44:08;;;;;;;0.70;0.70;;;1.50;99.90;;;;;;5085838;28;20261;-86
2023/12/29 05:46:33;;;;;;;0.52;0.52;;;1.50;99.90;;;;;;5085860;28;20212;-87
2023/12/29 05:48:59;;;;;;;0.60;0.60;;;1.50;99.90;;;;;;5084387;28;20254;-85
2023/12/29 05:51:25;;;;;;;0.60;0.60;;;1.50;99.90;;;;;;5085101;28;20256;-86
2023/12/29 05:53:51;;;;;;;0.60;0.60;;;1.50;99.90;;;;;;5085515;28;20277;-86
2023/12/29 05:56:17;;;;;;;0.60;0.60;;;1.50;99.90;;;;;;5085885;28;20200;-86
2023/12/29 05:58:43;;;;;;;0.50;0.50;;;1.40;99.90;;;;;;5102964;28;20199;-85
2023/12/29 06:01:09;;;;;;;0.60;0.60;;;1.40;99.90;;;;;;5084315;28;20791;-84
2023/12/29 06:04:01;;;;;;;0.70;0.70;;;1.50;99.90;;;;;;5068915;28;20203;-85
2023/12/29 06:06:35;;;;;;;0.60;0.60;;;1.50;99.90;;;;;;5063371;28;20220;-83
2023/12/29 06:09:01;;;;;;;0.70;0.70;;;1.40;99.90;;;;;;5065416;28;20215;-84
2023/12/29 06:11:33;;;;;;;0.60;0.60;;;1.40;99.90;;;;;;5084180;28;20291;-84
2023/12/29 06:14:03;;;;;;;0.50;0.50;;;1.40;99.90;;;;;;5084617;28;20192;-84
2023/12/29 06:16:30;;;;;;;0.68;0.68;;;1.40;99.90;;;;;;5103291;28;20192;-83
2023/12/29 06:18:56;;;;;;;0.55;0.55;;;1.40;99.90;;;;;;5085245;28;20263;-83
2023/12/29 06:21:22;;;;;;;0.50;0.50;;;1.50;99.90;;;;;;5083717;28;20232;-84
2023/12/29 06:23:48;;;;;;;0.60;0.60;;;1.50;99.90;;;;;;5083532;28;20561;-83
2023/12/29 06:26:18;;;;;;;0.60;0.60;;;1.50;99.90;;;;;;5082816;28;20337;-84
2023/12/29 06:28:45;;;;;;;0.60;0.60;;;1.50;99.90;;;;;;5083025;28;20196;-84
2023/12/29 06:31:11;;;;;;;0.93;0.93;;;1.50;99.90;;;;;;5081965;28;20219;-84
2023/12/29 06:33:40;;;;;;;0.77;0.77;;;1.50;99.90;;;;;;5081583;28;20199;-84
2023/12/29 06:36:26;;;;;;;0.60;0.60;;;1.50;99.90;;;;;;5083115;28;20192;-83
2023/12/29 06:38:52;;;;;;;0.70;0.70;;;1.50;99.90;;;;;;5083333;28;20257;-83
2023/12/29 06:41:19;;;;;;;0.63;0.63;;;1.50;99.90;;;;;;5102044;28;20249;-84
2023/12/29 06:43:45;;;;;;;0.63;0.63;;;1.50;99.90;;;;;;5083853;28;20245;-83
2023/12/29 06:46:20;;;;;;;0.70;0.70;;;1.50;99.90;;;;;;5101774;28;20208;-84
2023/12/29 06:48:47;;;;;;;0.65;0.65;;;1.50;99.90;;;;;;5084332;28;20255;-84
2023/12/29 06:51:19;;;;;;;0.60;0.60;;;1.50;99.90;;;;;;5102287;28;20252;-85
2023/12/29 06:53:49;;;;;;;0.73;0.73;;;1.50;99.90;;;;;;5083427;28;20239;-86
2023/12/29 06:56:15;;;;;;;0.90;0.90;;;1.50;99.90;;;;;;5083935;28;20267;-86
2023/12/29 06:58:44;;;;;;;0.68;0.68;;;1.50;99.90;;;;;;5083704;28;20316;-85
2023/12/29 07:01:10;;;;;;;0.70;0.70;;;1.50;99.90;;;;;;5083352;28;20200;-85
2023/12/29 07:03:36;;;;;;;0.60;0.60;;;1.50;99.90;;;;;;5083669;28;20172;-85
2023/12/29 07:06:02;;;;;;;0.63;0.63;;;1.50;99.90;;;;;;5101239;28;20195;-85
2023/12/29 07:08:28;;;;;;;0.70;0.70;;;1.50;99.90;;;;;;5101066;28;20199;-86
2023/12/29 07:10:54;;;;;;;0.55;0.55;;;1.50;99.90;;;;;;5083149;28;20286;-86
2023/12/29 07:13:20;;;;;;;0.70;0.70;;;1.50;99.90;;;;;;5082488;28;20230;-85
2023/12/29 07:15:48;;;;;;;0.52;0.52;;;1.50;99.90;;;;;;5101041;28;20191;-86
2023/12/29 07:18:16;;;;;;;0.57;0.57;;;1.50;99.90;;;;;;5083497;28;20199;-85
2023/12/29 07:20:45;;;;;;;0.60;0.60;;;1.50;99.90;;;;;;5083081;28;20684;-86
2023/12/29 07:23:10;;;;;;;0.60;0.60;;;1.50;99.90;;;;;;5083522;28;20191;-85
2023/12/29 07:25:39;;;;;;;0.63;0.63;;;1.50;99.90;;;;;;5101118;28;20219;-86
2023/12/29 07:28:05;;;;;;;0.60;0.60;;;1.50;99.90;;;;;;5083912;28;20726;-86
2023/12/29 07:30:31;;;;;;;0.60;0.60;;;1.50;99.90;;;;;;5083564;28;20196;-85
2023/12/29 07:33:00;;;;;;;0.70;0.70;;;1.60;99.90;;;;;;5082873;28;20200;-86
2023/12/29 07:35:29;;;;;;;0.60;0.60;;;1.60;99.90;;;;;;5101969;28;20556;-85
2023/12/29 07:37:55;;;;;;;0.50;0.50;;;1.50;99.90;;;;;;5083562;28;20881;-85
2023/12/29 07:40:22;;;;;;;0.80;0.80;;;1.50;99.90;;;;;;5102167;28;20196;-84
2023/12/29 07:42:50;;;;;;;0.60;0.60;;;1.60;99.90;;;;;;5084081;28;20218;-85
2023/12/29 07:45:16;;;;;;;0.70;0.70;;;1.60;99.90;;;;;;5083275;28;20557;-86
2023/12/29 07:47:42;;;;;;;0.60;0.60;;;1.50;99.90;;;;;;5082886;28;20208;-86
2023/12/29 07:50:08;;;;;;;0.60;0.60;;;1.60;99.90;;;;;;5083452;28;20203;-86
2023/12/29 07:52:34;;;;;;;0.52;0.52;;;1.60;99.90;;;;;;5083105;28;20204;-86
2023/12/29 07:55:00;;;;;;;0.60;0.60;;;1.60;99.90;;;;;;5083893;28;20364;-86
2023/12/29 07:57:26;;;;;;;0.57;0.57;;;1.60;99.90;;;;;;5083435;28;20192;-86
2023/12/29 07:59:52;;;;;;;0.60;0.60;;;1.60;99.90;;;;;;5100942;28;20696;-86
2023/12/29 08:02:29;;;;;;;0.50;0.50;;;1.60;99.90;;;;;;5080226;28;20659;-86
2023/12/29 08:04:55;;;;;;;0.70;0.70;;;1.60;99.90;;;;;;5081535;28;20208;-86
2023/12/29 08:07:21;;;;;;;0.60;0.60;;;1.60;99.90;;;;;;5095414;28;20200;-87
2023/12/29 08:09:46;;;;;;;0.60;0.60;;;1.60;99.90;;;;;;5097344;28;20229;-87
2023/12/29 08:12:19;;;;;;;0.70;0.70;;;1.60;99.90;;;;;;5115369;28;20219;-87
2023/12/29 08:14:45;;;;;;;0.70;0.70;;;1.60;99.90;;;;;;5096563;28;20195;-87
2023/12/29 08:17:14;;;;;;;0.70;0.70;;;1.60;99.90;;;;;;5096104;28;20261;-87
2023/12/29 08:19:40;;;;;;;0.70;0.70;;;1.60;99.90;;;;;;5095946;28;20200;-86
2023/12/29 08:22:07;;;;;;;0.63;0.63;;;1.60;99.90;;;;;;5095790;28;20238;-86
2023/12/29 08:24:45;;;;;;;0.75;0.75;;;1.60;99.90;;;;;;5095342;28;20237;-87
2023/12/29 08:27:25;;;;;;;0.60;0.60;;;1.60;99.90;;;;;;5095319;28;20247;-86
2023/12/29 08:29:56;;;;;;;0.70;0.70;;;1.70;99.90;;;;;;5099086;28;20548;-86
2023/12/29 08:32:22;;;;;;;1.15;1.05;;;1.70;99.90;;;;;;5098597;28;20192;-86
2023/12/29 08:34:48;;;;;;;0.73;0.73;;;1.70;99.90;;;;;;5096246;28;20249;-86
2023/12/29 08:37:19;;;;;;;0.50;0.50;;;1.70;99.90;;;;;;5102954;28;20237;-85
2023/12/29 08:39:47;;;;;;;0.70;0.70;;;1.70;99.90;;;;;;5085091;28;20670;-86
2023/12/29 08:42:21;;;;;;;0.68;0.68;;;1.70;99.90;;;;;;5086514;28;20204;-85
2023/12/29 08:44:50;;;;;;;0.60;0.60;;;1.70;99.90;;;;;;5084924;28;20199;-86
2023/12/29 08:47:34;;;;;;;0.82;0.82;;;1.70;99.90;;;;;;5083777;28;20211;-86
2023/12/29 08:50:01;;;;;;;0.60;0.60;;;1.80;99.90;;;;;;5062858;28;20200;-85
2023/12/29 08:52:28;;;;;;;0.52;0.52;;;1.80;99.90;;;;;;5078066;28;20204;-86
2023/12/29 08:58:15;;;;;;;0.63;0.63;;;1.90;99.90;;;;;;5061580;28;20202;-86
2023/12/29 09:04:17;;;;;;;0.60;0.60;;;1.80;99.90;;;;;;5017274;28;20202;-86
2023/12/29 09:07:29;;;;;;;;;;;;;;;;;;;;;
2023/12/29 09:10:21;;;;;;;0.50;0.50;;;1.80;99.90;;;;;;4992438;28;20640;-84
2023/12/29 09:12:50;;;;;;;0.70;0.70;;;1.80;99.90;;;;;;5004098;28;20226;-83
2023/12/29 09:15:47;;;;;;;;;;;;;;;;;;;;;
2023/12/29 09:18:16;;;;;;;0.82;0.82;;;1.90;99.90;;;;;;5019827;28;20313;-85
2023/12/29 09:21:37;;;;;;;;;;;;;;;;;;;;;
2023/12/29 09:24:49;;;;;;;;;;;;;;;;;;;;;
2023/12/29 09:32:02;;;;;;;0.70;0.70;;;1.90;99.90;;;;;;4980337;28;20208;-85
2023/12/29 09:42:45;;;;;;;0.70;0.70;;;1.90;99.90;;;;;;4980901;28;20203;-85
2023/12/29 09:45:48;;;;;;;0.57;0.57;;;2.00;99.90;;;;;;4978005;28;20216;-84
2023/12/29 09:48:25;;;;;;;0.90;0.90;;;2.00;99.90;;;;;;4980952;28;20265;-84
2023/12/29 09:51:03;;;;;;;0.70;0.70;;;2.10;99.90;;;;;;5003156;28;20257;-86
2023/12/29 09:53:31;;;;;;;0.60;0.60;;;2.10;99.90;;;;;;5002434;28;20201;-84
2023/12/29 09:56:10;;;;;;;0.60;0.60;;;2.10;99.90;;;;;;5002858;28;20261;-85
2023/12/29 09:58:42;;;;;;;0.60;0.60;;;2.10;99.90;;;;;;5002125;28;20662;-84
2023/12/29 10:04:50;;;;;;;0.60;0.60;;;2.10;99.90;;;;;;5005333;28;20206;-85
2023/12/29 10:07:46;;;;;;;1.00;1.00;;;2.10;99.90;;;;;;4998161;28;20215;-85
2023/12/29 10:10:19;;;;;;;0.60;0.60;;;2.10;99.90;;;;;;5044472;28;20208;-85
2023/12/29 10:12:59;;;;;;;0.77;0.77;;;2.10;99.90;;;;;;5061515;28;20204;-85
2023/12/29 10:19:19;;;;;;;0.80;0.80;;;2.10;99.90;;;;;;5077575;28;20236;-84
2023/12/29 10:22:02;;;;;;;0.60;0.60;;;2.10;99.90;;;;;;5079127;28;20687;-84
2023/12/29 10:24:39;;;;;;;0.80;0.80;;;2.10;99.90;;;;;;5078014;28;20299;-84
2023/12/29 10:27:22;;;;;;;0.60;0.60;;;2.10;99.90;;;;;;5078494;28;20842;-85
2023/12/29 10:32:51;;;;;;;0.90;0.90;;;2.10;99.90;;;;;;5072599;28;20211;-84
2023/12/29 10:39:17;;;;;;;0.93;0.93;;;2.00;99.90;;;;;;5074386;28;20231;-86
2023/12/29 10:49:18;;;;;;;0.70;0.70;;;2.00;99.90;;;;;;5032328;28;20221;-88
2023/12/29 10:52:17;;;;;;;2.50;1.30;;;2.00;99.90;;;;;;4940214;29;20197;-86
2023/12/29 10:58:32;;;;;;;0.70;0.70;;;2.00;99.90;;;;;;4879748;29;20719;-86
2023/12/29 11:01:01;;;;;;;0.80;0.80;;;2.10;99.90;;;;;;4878649;29;20219;-86
2023/12/29 11:03:38;;;;;;;0.70;0.70;;;2.10;99.90;;;;;;4880008;29;20235;-87
2023/12/29 11:13:41;;;;;;;;;;;;;;;;;;;;;
2023/12/29 11:19:48;;;;;;;0.65;0.65;;;2.30;99.90;;;;;;4863085;29;20720;-87
2023/12/29 11:22:23;;;;;;;0.60;0.60;;;2.30;99.90;;;;;;4906548;29;20302;-87
2023/12/29 11:24:55;;;;;;;0.98;0.98;;;2.20;99.90;;;;;;4904451;29;20233;-86
2023/12/29 11:27:22;;;;;;;0.70;0.70;;;2.20;99.90;;;;;;4919893;29;20328;-85
2023/12/29 11:29:51;;;;;;;0.50;0.50;;;2.30;99.90;;;;;;4917969;29;20297;-86
2023/12/29 11:32:26;;;;;;;3.00;1.88;;;2.30;99.90;;;;;;4936222;29;20292;-86
2023/12/29 11:34:59;;;;;;;1.15;0.93;;;2.30;99.90;;;;;;4942397;29;20295;-85
2023/12/29 11:37:34;;;;;;;1.30;1.23;;;2.30;99.90;;;;;;4931912;29;20248;-85
2023/12/29 11:40:28;;;;;;;0.80;0.80;;;2.30;99.90;;;;;;5015399;28;20236;-85
2023/12/29 11:42:57;;;;;;;0.70;0.70;;;2.30;99.90;;;;;;5056819;28;20236;-85
2023/12/29 11:45:31;;;;;;;2.42;2.22;;;2.20;99.90;;;;;;5057425;28;20202;-85
2023/12/29 11:47:59;;;;;;;2.28;2.08;;;2.20;99.90;;;;;;5056657;28;20255;-85
2023/12/29 11:50:40;;;;;;;0.77;0.77;;;2.20;99.90;;;;;;5056493;28;20554;-85
2023/12/29 11:53:29;;;;;;;0.70;0.70;;;2.30;99.90;;;;;;5056280;28;20198;-85
2023/12/29 11:55:55;;;;;;;0.60;0.60;;;2.20;99.90;;;;;;5055484;28;20269;-85
2023/12/29 11:58:26;;;;;;;8.07;3.75;;;2.20;99.90;;;;;;5057332;28;20272;-85
2023/12/29 12:00:52;;;;;;;1.05;0.95;;;2.20;99.90;;;;;;5056564;28;20213;-86
2023/12/29 12:03:31;;;;;;;0.80;0.80;;;2.20;99.90;;;;;;5055622;28;20233;-84
2023/12/29 12:06:03;;;;;;;0.60;0.60;;;2.20;99.90;;;;;;5057182;28;20231;-85
2023/12/29 12:08:39;;;;;;;0.70;0.70;;;2.10;99.90;;;;;;5073843;28;20220;-85
2023/12/29 12:11:31;;;;;;;0.60;0.60;;;2.10;99.90;;;;;;5038799;28;20736;-85
2023/12/29 12:14:01;;;;;;;0.60;0.60;;;2.10;99.90;;;;;;5035934;28;20194;-84
2023/12/29 12:16:44;;;;;;;1.65;1.20;;;2.10;99.90;;;;;;5036118;28;20252;-85
2023/12/29 12:19:11;;;;;;;0.65;0.65;;;2.10;99.90;;;;;;5036327;28;20206;-87
2023/12/29 12:21:41;;;;;;;0.80;0.80;;;2.10;99.90;;;;;;5036121;28;20206;-85
2023/12/29 12:24:08;;;;;;;1.00;1.00;;;2.10;99.90;;;;;;5036298;28;20616;-86
2023/12/29 12:26:37;;;;;;;0.70;0.70;;;2.10;99.90;;;;;;5035671;28;20292;-85
2023/12/29 12:29:14;;;;;;;0.63;0.63;;;2.10;99.90;;;;;;5020524;28;20541;-86
2023/12/29 12:31:56;;;;;;;0.80;0.80;;;2.20;99.90;;;;;;5035862;28;20293;-85
2023/12/29 12:34:25;;;;;;;0.68;0.68;;;2.20;99.90;;;;;;5051635;28;20202;-86
2023/12/29 12:36:59;;;;;;;1.05;0.95;;;2.20;99.90;;;;;;5056791;28;20228;-87
2023/12/29 12:39:53;;;;;;;0.60;0.60;;;2.20;99.90;;;;;;5056536;28;20226;-85
2023/12/29 12:42:21;;;;;;;0.60;0.60;;;2.20;99.90;;;;;;5055988;28;20656;-85
2023/12/29 12:45:06;;;;;;;0.85;0.85;;;2.20;99.90;;;;;;5056486;28;20193;-86
2023/12/29 12:47:36;;;;;;;2.35;1.40;;;2.20;99.90;;;;;;5056017;28;20205;-85
2023/12/29 12:50:04;;;;;;;1.13;1.02;;;2.10;99.90;;;;;;5057053;28;20232;-85
2023/12/29 12:52:35;;;;;;;2.08;1.95;;;2.10;99.90;;;;;;5072919;28;20228;-85
2023/12/29 12:55:01;;;;;;;0.70;0.70;;;2.10;99.90;;;;;;5056209;28;20212;-85
2023/12/29 12:57:30;;;;;;;0.63;0.63;;;2.10;99.90;;;;;;5056751;28;20224;-84
2023/12/29 12:59:56;;;;;;;0.60;0.60;;;2.00;99.90;;;;;;5058110;28;20657;-85
2023/12/29 13:02:25;;;;;;;0.60;0.60;;;2.00;99.90;;;;;;5057435;28;20783;-83
2023/12/29 13:04:54;;;;;;;0.60;0.60;;;2.10;99.90;;;;;;5055948;28;20288;-84
2023/12/29 13:07:23;;;;;;;0.50;0.50;;;2.10;99.90;;;;;;5056204;28;20209;-85
2023/12/29 13:09:51;;;;;;;0.50;0.50;;;2.10;99.90;;;;;;5056102;28;20190;-86
2023/12/29 13:12:18;;;;;;;0.70;0.70;;;2.10;99.90;;;;;;5073070;28;20193;-85
2023/12/29 13:14:45;;;;;;;0.65;0.65;;;2.10;99.90;;;;;;5059378;28;20196;-84
2023/12/29 13:17:15;;;;;;;0.90;0.90;;;2.10;99.90;;;;;;5076261;28;20202;-83
2023/12/29 13:19:43;;;;;;;0.63;0.63;;;2.10;99.90;;;;;;5075616;28;20732;-85
2023/12/29 13:22:11;;;;;;;0.70;0.70;;;2.10;99.90;;;;;;5076305;28;20206;-86
2023/12/29 13:24:59;;;;;;;2.10;1.05;;;2.10;99.90;;;;;;5079376;28;20216;-86
2023/12/29 13:27:25;;;;;;;0.65;0.65;;;2.00;99.90;;;;;;5079196;28;20222;-84
2023/12/29 13:29:51;;;;;;;0.70;0.70;;;2.00;99.90;;;;;;5063202;28;20193;-84
2023/12/29 13:32:32;;;;;;;0.93;0.88;;;2.00;99.90;;;;;;5062583;28;20249;-84
2023/12/29 13:35:26;;;;;;;0.60;0.60;;;2.00;99.90;;;;;;5063544;28;20199;-85
2023/12/29 13:38:12;;;;;;;0.98;0.98;;;1.90;99.90;;;;;;5062297;28;20205;-84
2023/12/29 13:41:10;;;;;;;0.60;0.60;;;1.90;99.90;;;;;;5062529;28;20260;-84
2023/12/29 13:43:42;;;;;;;0.60;0.60;;;1.90;99.90;;;;;;5042085;28;20213;-83
2023/12/29 13:46:21;;;;;;;0.60;0.60;;;1.90;99.90;;;;;;5079645;28;20207;-85
2023/12/29 13:48:49;;;;;;;0.50;0.50;;;1.90;99.90;;;;;;5080028;28;20600;-84
2023/12/29 13:51:24;;;;;;;0.70;0.70;;;1.90;99.90;;;;;;5079326;28;20205;-84
2023/12/29 13:54:01;;;;;;;0.60;0.60;;;1.80;99.90;;;;;;5081186;28;20859;-84
2023/12/29 13:56:36;;;;;;;0.70;0.70;;;1.80;99.90;;;;;;5079311;28;20227;-83
2023/12/29 13:59:07;;;;;;;1.05;1.05;;;1.80;99.90;;;;;;5080257;28;20200;-83
2023/12/29 14:01:39;;;;;;;0.60;0.60;;;1.80;99.90;;;;;;5061897;28;20555;-84
2023/12/29 14:04:12;;;;;;;0.60;0.60;;;1.70;99.90;;;;;;5079896;28;20216;-84
2023/12/29 14:06:54;;;;;;;0.60;0.60;;;1.70;99.90;;;;;;5061955;28;20231;-84
2023/12/29 14:09:20;;;;;;;0.90;0.90;;;1.70;99.90;;;;;;5061222;28;20667;-83
2023/12/29 14:11:49;;;;;;;0.60;0.60;;;1.70;99.90;;;;;;5062885;28;20201;-83
2023/12/29 14:14:24;;;;;;;0.70;0.70;;;1.70;99.90;;;;;;5062751;28;20231;-83
2023/12/29 14:16:54;;;;;;;0.70;0.70;;;1.70;99.90;;;;;;5061976;28;20196;-82
2023/12/29 14:19:20;;;;;;;0.70;0.70;;;1.70;99.90;;;;;;5062477;28;20196;-84
2023/12/29 14:21:53;;;;;;;0.60;0.60;;;1.70;99.90;;;;;;5062067;28;20196;-83